sensor_id;sensor_type;location;lat;lon;timestamp;P1;durP1;ratioP1;P2;durP2;ratioP2
6251;SDS011;3159;52.414;9.784;2024-03-07T00:01:56;10.90;;;7.53;;
6251;SDS011;3159;52.414;9.784;2024-03-07T00:04:23;9.70;;;7.80;;
6251;SDS011;3159;52.414;9.784;2024-03-07T00:06:51;9.60;;;7.53;;
6251;SDS011;3159;52.414;9.784;2024-03-07T00:09:18;10.80;;;7.47;;
6251;SDS011;3159;52.414;9.784;2024-03-07T00:11:49;11.10;;;7.53;;
6251;SDS011;3159;52.414;9.784;2024-03-07T00:14:16;9.33;;;7.20;;
6251;SDS011;3159;52.414;9.784;2024-03-07T00:16:43;9.03;;;7.80;;
6251;SDS011;3159;52.414;9.784;2024-03-07T00:19:10;10.37;;;6.97;;
6251;SDS011;3159;52.414;9.784;2024-03-07T00:21:40;10.47;;;7.90;;
6251;SDS011;3159;52.414;9.784;2024-03-07T00:24:08;10.93;;;7.90;;
6251;SDS011;3159;52.414;9.784;2024-03-07T00:26:35;9.97;;;8.27;;
6251;SDS011;3159;52.414;9.784;2024-03-07T00:29:05;11.97;;;7.90;;
6251;SDS011;3159;52.414;9.784;2024-03-07T00:31:32;10.67;;;7.23;;
6251;SDS011;3159;52.414;9.784;2024-03-07T00:33:59;10.93;;;7.73;;
6251;SDS011;3159;52.414;9.784;2024-03-07T00:36:26;11.20;;;7.80;;
6251;SDS011;3159;52.414;9.784;2024-03-07T00:38:53;10.07;;;7.80;;
6251;SDS011;3159;52.414;9.784;2024-03-07T00:41:21;12.00;;;7.97;;
6251;SDS011;3159;52.414;9.784;2024-03-07T00:43:47;11.87;;;8.70;;
6251;SDS011;3159;52.414;9.784;2024-03-07T00:46:15;11.40;;;8.70;;
6251;SDS011;3159;52.414;9.784;2024-03-07T00:48:42;14.30;;;8.90;;
6251;SDS011;3159;52.414;9.784;2024-03-07T00:51:10;13.43;;;8.37;;
6251;SDS011;3159;52.414;9.784;2024-03-07T00:53:37;13.50;;;9.30;;
6251;SDS011;3159;52.414;9.784;2024-03-07T00:56:04;12.63;;;8.87;;
6251;SDS011;3159;52.414;9.784;2024-03-07T00:58:32;12.47;;;9.07;;
6251;SDS011;3159;52.414;9.784;2024-03-07T01:00:59;12.20;;;8.77;;
6251;SDS011;3159;52.414;9.784;2024-03-07T01:03:26;12.07;;;8.90;;
6251;SDS011;3159;52.414;9.784;2024-03-07T01:05:53;13.17;;;8.43;;
6251;SDS011;3159;52.414;9.784;2024-03-07T01:08:20;12.47;;;8.93;;
6251;SDS011;3159;52.414;9.784;2024-03-07T01:10:47;12.70;;;8.57;;
6251;SDS011;3159;52.414;9.784;2024-03-07T01:13:14;12.97;;;8.90;;
6251;SDS011;3159;52.414;9.784;2024-03-07T01:15:45;12.00;;;8.97;;
6251;SDS011;3159;52.414;9.784;2024-03-07T01:18:13;13.30;;;9.30;;
6251;SDS011;3159;52.414;9.784;2024-03-07T01:20:40;11.87;;;9.27;;
6251;SDS011;3159;52.414;9.784;2024-03-07T01:23:07;11.00;;;8.43;;
6251;SDS011;3159;52.414;9.784;2024-03-07T01:25:34;10.43;;;8.77;;
6251;SDS011;3159;52.414;9.784;2024-03-07T01:28:00;12.17;;;9.60;;
6251;SDS011;3159;52.414;9.784;2024-03-07T01:30:29;12.20;;;8.70;;
6251;SDS011;3159;52.414;9.784;2024-03-07T01:32:57;12.03;;;8.73;;
6251;SDS011;3159;52.414;9.784;2024-03-07T01:35:24;10.30;;;8.60;;
6251;SDS011;3159;52.414;9.784;2024-03-07T01:37:51;11.57;;;8.90;;
6251;SDS011;3159;52.414;9.784;2024-03-07T01:40:17;11.03;;;8.33;;
6251;SDS011;3159;52.414;9.784;2024-03-07T01:42:46;12.40;;;9.07;;
6251;SDS011;3159;52.414;9.784;2024-03-07T01:45:14;12.67;;;8.60;;
6251;SDS011;3159;52.414;9.784;2024-03-07T01:47:41;11.67;;;8.33;;
6251;SDS011;3159;52.414;9.784;2024-03-07T01:50:09;12.20;;;8.50;;
6251;SDS011;3159;52.414;9.784;2024-03-07T01:52:36;9.03;;;7.83;;
6251;SDS011;3159;52.414;9.784;2024-03-07T01:55:06;11.17;;;8.17;;
6251;SDS011;3159;52.414;9.784;2024-03-07T01:57:35;11.67;;;8.10;;
6251;SDS011;3159;52.414;9.784;2024-03-07T02:00:02;12.80;;;8.57;;
6251;SDS011;3159;52.414;9.784;2024-03-07T02:02:31;13.33;;;8.53;;
6251;SDS011;3159;52.414;9.784;2024-03-07T02:04:58;12.07;;;7.93;;
6251;SDS011;3159;52.414;9.784;2024-03-07T02:07:27;12.40;;;9.27;;
6251;SDS011;3159;52.414;9.784;2024-03-07T02:09:58;13.03;;;9.27;;
6251;SDS011;3159;52.414;9.784;2024-03-07T02:12:26;10.47;;;8.40;;
6251;SDS011;3159;52.414;9.784;2024-03-07T02:14:54;10.97;;;8.57;;
6251;SDS011;3159;52.414;9.784;2024-03-07T02:17:22;10.33;;;8.70;;
6251;SDS011;3159;52.414;9.784;2024-03-07T02:19:49;15.60;;;8.77;;
6251;SDS011;3159;52.414;9.784;2024-03-07T02:22:18;13.40;;;8.73;;
6251;SDS011;3159;52.414;9.784;2024-03-07T02:24:45;10.87;;;8.30;;
6251;SDS011;3159;52.414;9.784;2024-03-07T02:27:11;10.77;;;8.53;;
6251;SDS011;3159;52.414;9.784;2024-03-07T02:29:39;11.30;;;7.97;;
6251;SDS011;3159;52.414;9.784;2024-03-07T02:32:06;11.77;;;8.47;;
6251;SDS011;3159;52.414;9.784;2024-03-07T02:34:33;12.30;;;8.80;;
6251;SDS011;3159;52.414;9.784;2024-03-07T02:37:00;11.40;;;8.53;;
6251;SDS011;3159;52.414;9.784;2024-03-07T02:39:28;11.53;;;7.90;;
6251;SDS011;3159;52.414;9.784;2024-03-07T02:41:55;11.07;;;7.63;;
6251;SDS011;3159;52.414;9.784;2024-03-07T02:44:22;12.27;;;8.27;;
6251;SDS011;3159;52.414;9.784;2024-03-07T02:46:49;11.80;;;8.47;;
6251;SDS011;3159;52.414;9.784;2024-03-07T02:49:16;11.33;;;8.70;;
6251;SDS011;3159;52.414;9.784;2024-03-07T02:51:43;10.17;;;7.97;;
6251;SDS011;3159;52.414;9.784;2024-03-07T02:54:10;12.27;;;8.53;;
6251;SDS011;3159;52.414;9.784;2024-03-07T02:56:38;10.63;;;8.20;;
6251;SDS011;3159;52.414;9.784;2024-03-07T02:59:05;13.97;;;9.07;;
6251;SDS011;3159;52.414;9.784;2024-03-07T03:01:32;10.97;;;8.03;;
6251;SDS011;3159;52.414;9.784;2024-03-07T03:04:00;10.57;;;7.87;;
6251;SDS011;3159;52.414;9.784;2024-03-07T03:06:28;11.70;;;8.30;;
6251;SDS011;3159;52.414;9.784;2024-03-07T03:08:54;10.90;;;8.10;;
6251;SDS011;3159;52.414;9.784;2024-03-07T03:11:21;12.33;;;9.13;;
6251;SDS011;3159;52.414;9.784;2024-03-07T03:13:49;10.10;;;8.13;;
6251;SDS011;3159;52.414;9.784;2024-03-07T03:16:16;10.43;;;8.53;;
6251;SDS011;3159;52.414;9.784;2024-03-07T03:18:43;10.57;;;7.63;;
6251;SDS011;3159;52.414;9.784;2024-03-07T03:21:10;11.43;;;8.30;;
6251;SDS011;3159;52.414;9.784;2024-03-07T03:23:37;13.40;;;8.23;;
6251;SDS011;3159;52.414;9.784;2024-03-07T03:26:05;11.93;;;8.87;;
6251;SDS011;3159;52.414;9.784;2024-03-07T03:28:32;11.67;;;8.77;;
6251;SDS011;3159;52.414;9.784;2024-03-07T03:31:00;12.07;;;8.33;;
6251;SDS011;3159;52.414;9.784;2024-03-07T03:33:29;11.60;;;8.10;;
6251;SDS011;3159;52.414;9.784;2024-03-07T03:35:57;12.87;;;9.17;;
6251;SDS011;3159;52.414;9.784;2024-03-07T03:38:24;12.40;;;9.03;;
6251;SDS011;3159;52.414;9.784;2024-03-07T03:40:51;12.33;;;9.50;;
6251;SDS011;3159;52.414;9.784;2024-03-07T03:43:17;12.50;;;9.30;;
6251;SDS011;3159;52.414;9.784;2024-03-07T03:45:44;12.73;;;9.47;;
6251;SDS011;3159;52.414;9.784;2024-03-07T03:48:14;14.80;;;10.50;;
6251;SDS011;3159;52.414;9.784;2024-03-07T03:50:40;12.47;;;9.83;;
6251;SDS011;3159;52.414;9.784;2024-03-07T03:53:07;14.17;;;10.00;;
6251;SDS011;3159;52.414;9.784;2024-03-07T03:55:34;12.17;;;9.73;;
6251;SDS011;3159;52.414;9.784;2024-03-07T03:58:02;13.63;;;10.17;;
6251;SDS011;3159;52.414;9.784;2024-03-07T04:00:30;13.67;;;9.70;;
6251;SDS011;3159;52.414;9.784;2024-03-07T04:02:57;14.17;;;10.07;;
6251;SDS011;3159;52.414;9.784;2024-03-07T04:05:25;15.23;;;10.03;;
6251;SDS011;3159;52.414;9.784;2024-03-07T04:07:52;13.37;;;8.97;;
6251;SDS011;3159;52.414;9.784;2024-03-07T04:10:20;13.27;;;9.93;;
6251;SDS011;3159;52.414;9.784;2024-03-07T04:12:48;15.27;;;9.70;;
6251;SDS011;3159;52.414;9.784;2024-03-07T04:15:15;15.00;;;9.97;;
6251;SDS011;3159;52.414;9.784;2024-03-07T04:17:42;14.10;;;9.43;;
6251;SDS011;3159;52.414;9.784;2024-03-07T04:20:09;13.40;;;10.43;;
6251;SDS011;3159;52.414;9.784;2024-03-07T04:22:39;15.40;;;10.40;;
6251;SDS011;3159;52.414;9.784;2024-03-07T04:25:06;15.83;;;10.83;;
6251;SDS011;3159;52.414;9.784;2024-03-07T04:27:34;17.53;;;11.80;;
6251;SDS011;3159;52.414;9.784;2024-03-07T04:30:05;12.00;;;9.63;;
6251;SDS011;3159;52.414;9.784;2024-03-07T04:32:34;15.13;;;10.17;;
6251;SDS011;3159;52.414;9.784;2024-03-07T04:35:02;14.23;;;10.97;;
6251;SDS011;3159;52.414;9.784;2024-03-07T04:37:32;14.70;;;10.40;;
6251;SDS011;3159;52.414;9.784;2024-03-07T04:40:02;14.70;;;10.43;;
6251;SDS011;3159;52.414;9.784;2024-03-07T04:42:36;17.40;;;10.90;;
6251;SDS011;3159;52.414;9.784;2024-03-07T04:45:03;14.77;;;11.00;;
6251;SDS011;3159;52.414;9.784;2024-03-07T04:47:30;17.83;;;11.30;;
6251;SDS011;3159;52.414;9.784;2024-03-07T04:49:57;17.07;;;11.80;;
6251;SDS011;3159;52.414;9.784;2024-03-07T04:52:24;16.37;;;11.57;;
6251;SDS011;3159;52.414;9.784;2024-03-07T04:54:51;16.20;;;12.13;;
6251;SDS011;3159;52.414;9.784;2024-03-07T04:57:19;15.37;;;11.70;;
6251;SDS011;3159;52.414;9.784;2024-03-07T04:59:45;17.03;;;11.93;;
6251;SDS011;3159;52.414;9.784;2024-03-07T05:02:13;18.10;;;11.67;;
6251;SDS011;3159;52.414;9.784;2024-03-07T05:04:40;17.17;;;11.77;;
6251;SDS011;3159;52.414;9.784;2024-03-07T05:07:06;19.47;;;12.40;;
6251;SDS011;3159;52.414;9.784;2024-03-07T05:09:33;15.67;;;12.17;;
6251;SDS011;3159;52.414;9.784;2024-03-07T05:12:00;16.37;;;11.73;;
6251;SDS011;3159;52.414;9.784;2024-03-07T05:14:28;16.60;;;11.60;;
6251;SDS011;3159;52.414;9.784;2024-03-07T05:16:55;15.47;;;11.87;;
6251;SDS011;3159;52.414;9.784;2024-03-07T05:19:31;16.00;;;11.60;;
6251;SDS011;3159;52.414;9.784;2024-03-07T05:21:58;17.53;;;12.80;;
6251;SDS011;3159;52.414;9.784;2024-03-07T05:24:25;15.87;;;12.00;;
6251;SDS011;3159;52.414;9.784;2024-03-07T05:26:52;16.73;;;12.07;;
6251;SDS011;3159;52.414;9.784;2024-03-07T05:29:19;18.13;;;12.33;;
6251;SDS011;3159;52.414;9.784;2024-03-07T05:31:47;16.10;;;12.37;;
6251;SDS011;3159;52.414;9.784;2024-03-07T05:34:14;18.77;;;12.13;;
6251;SDS011;3159;52.414;9.784;2024-03-07T05:36:44;20.97;;;12.87;;
6251;SDS011;3159;52.414;9.784;2024-03-07T05:39:11;18.63;;;12.27;;
6251;SDS011;3159;52.414;9.784;2024-03-07T05:41:38;18.13;;;13.27;;
6251;SDS011;3159;52.414;9.784;2024-03-07T05:44:06;17.10;;;12.70;;
6251;SDS011;3159;52.414;9.784;2024-03-07T05:46:34;17.03;;;12.03;;
6251;SDS011;3159;52.414;9.784;2024-03-07T05:49:04;17.77;;;12.53;;
6251;SDS011;3159;52.414;9.784;2024-03-07T05:51:30;18.83;;;12.57;;
6251;SDS011;3159;52.414;9.784;2024-03-07T05:53:58;19.37;;;12.97;;
6251;SDS011;3159;52.414;9.784;2024-03-07T05:56:25;19.10;;;12.97;;
6251;SDS011;3159;52.414;9.784;2024-03-07T05:58:52;20.63;;;13.50;;
6251;SDS011;3159;52.414;9.784;2024-03-07T06:01:19;21.37;;;13.20;;
6251;SDS011;3159;52.414;9.784;2024-03-07T06:03:46;22.83;;;14.47;;
6251;SDS011;3159;52.414;9.784;2024-03-07T06:06:15;22.07;;;14.17;;
6251;SDS011;3159;52.414;9.784;2024-03-07T06:08:42;21.33;;;14.53;;
6251;SDS011;3159;52.414;9.784;2024-03-07T06:11:09;23.50;;;14.83;;
6251;SDS011;3159;52.414;9.784;2024-03-07T06:13:38;24.07;;;15.77;;
6251;SDS011;3159;52.414;9.784;2024-03-07T06:16:05;26.83;;;16.53;;
6251;SDS011;3159;52.414;9.784;2024-03-07T06:18:33;24.73;;;15.10;;
6251;SDS011;3159;52.414;9.784;2024-03-07T06:21:00;26.30;;;15.97;;
6251;SDS011;3159;52.414;9.784;2024-03-07T06:23:30;31.17;;;17.47;;
6251;SDS011;3159;52.414;9.784;2024-03-07T06:25:57;23.93;;;16.00;;
6251;SDS011;3159;52.414;9.784;2024-03-07T06:28:26;29.17;;;15.70;;
6251;SDS011;3159;52.414;9.784;2024-03-07T06:30:54;31.30;;;17.03;;
6251;SDS011;3159;52.414;9.784;2024-03-07T06:33:22;28.73;;;17.50;;
6251;SDS011;3159;52.414;9.784;2024-03-07T06:35:50;30.30;;;16.03;;
6251;SDS011;3159;52.414;9.784;2024-03-07T06:38:17;33.37;;;17.33;;
6251;SDS011;3159;52.414;9.784;2024-03-07T06:40:45;30.83;;;16.57;;
6251;SDS011;3159;52.414;9.784;2024-03-07T06:43:13;33.00;;;18.43;;
6251;SDS011;3159;52.414;9.784;2024-03-07T06:45:40;33.03;;;17.43;;
6251;SDS011;3159;52.414;9.784;2024-03-07T06:48:07;31.37;;;17.73;;
6251;SDS011;3159;52.414;9.784;2024-03-07T06:50:35;36.83;;;17.63;;
6251;SDS011;3159;52.414;9.784;2024-03-07T06:53:02;39.40;;;19.37;;
6251;SDS011;3159;52.414;9.784;2024-03-07T06:55:31;40.17;;;18.43;;
6251;SDS011;3159;52.414;9.784;2024-03-07T06:58:00;31.10;;;18.80;;
6251;SDS011;3159;52.414;9.784;2024-03-07T07:00:29;35.00;;;18.33;;
6251;SDS011;3159;52.414;9.784;2024-03-07T07:02:57;34.27;;;18.37;;
6251;SDS011;3159;52.414;9.784;2024-03-07T07:05:24;36.60;;;19.53;;
6251;SDS011;3159;52.414;9.784;2024-03-07T07:07:50;39.30;;;19.27;;
6251;SDS011;3159;52.414;9.784;2024-03-07T07:10:17;36.43;;;18.97;;
6251;SDS011;3159;52.414;9.784;2024-03-07T07:12:44;37.20;;;19.60;;
6251;SDS011;3159;52.414;9.784;2024-03-07T07:15:14;34.13;;;19.23;;
6251;SDS011;3159;52.414;9.784;2024-03-07T07:17:43;37.33;;;19.43;;
6251;SDS011;3159;52.414;9.784;2024-03-07T07:20:11;35.13;;;19.47;;
6251;SDS011;3159;52.414;9.784;2024-03-07T07:22:40;35.07;;;18.67;;
6251;SDS011;3159;52.414;9.784;2024-03-07T07:25:07;33.90;;;18.83;;
6251;SDS011;3159;52.414;9.784;2024-03-07T07:27:39;35.23;;;19.10;;
6251;SDS011;3159;52.414;9.784;2024-03-07T07:30:08;34.63;;;19.20;;
6251;SDS011;3159;52.414;9.784;2024-03-07T07:32:37;31.07;;;19.80;;
6251;SDS011;3159;52.414;9.784;2024-03-07T07:35:05;36.57;;;18.47;;
6251;SDS011;3159;52.414;9.784;2024-03-07T07:37:36;34.07;;;19.43;;
6251;SDS011;3159;52.414;9.784;2024-03-07T07:40:04;36.60;;;20.40;;
6251;SDS011;3159;52.414;9.784;2024-03-07T07:42:33;35.97;;;19.13;;
6251;SDS011;3159;52.414;9.784;2024-03-07T07:45:03;34.77;;;18.93;;
6251;SDS011;3159;52.414;9.784;2024-03-07T07:47:32;36.47;;;19.50;;
6251;SDS011;3159;52.414;9.784;2024-03-07T07:50:04;36.60;;;19.83;;
6251;SDS011;3159;52.414;9.784;2024-03-07T07:52:39;31.73;;;18.43;;
6251;SDS011;3159;52.414;9.784;2024-03-07T07:55:06;30.80;;;18.17;;
6251;SDS011;3159;52.414;9.784;2024-03-07T07:57:39;31.77;;;17.83;;
6251;SDS011;3159;52.414;9.784;2024-03-07T08:00:07;29.60;;;18.13;;
6251;SDS011;3159;52.414;9.784;2024-03-07T08:02:35;30.30;;;16.73;;
6251;SDS011;3159;52.414;9.784;2024-03-07T08:05:04;29.43;;;16.50;;
6251;SDS011;3159;52.414;9.784;2024-03-07T08:07:31;28.30;;;16.30;;
6251;SDS011;3159;52.414;9.784;2024-03-07T08:09:58;32.03;;;16.83;;
6251;SDS011;3159;52.414;9.784;2024-03-07T08:12:25;37.17;;;18.37;;
6251;SDS011;3159;52.414;9.784;2024-03-07T08:14:52;32.37;;;18.77;;
6251;SDS011;3159;52.414;9.784;2024-03-07T08:17:19;34.87;;;17.77;;
6251;SDS011;3159;52.414;9.784;2024-03-07T08:19:46;32.20;;;16.60;;
6251;SDS011;3159;52.414;9.784;2024-03-07T08:22:17;28.77;;;16.77;;
6251;SDS011;3159;52.414;9.784;2024-03-07T08:24:45;31.57;;;17.30;;
6251;SDS011;3159;52.414;9.784;2024-03-07T08:27:12;29.93;;;17.90;;
6251;SDS011;3159;52.414;9.784;2024-03-07T08:29:38;35.60;;;17.53;;
6251;SDS011;3159;52.414;9.784;2024-03-07T08:32:06;30.60;;;16.63;;
6251;SDS011;3159;52.414;9.784;2024-03-07T08:34:33;29.47;;;17.10;;
6251;SDS011;3159;52.414;9.784;2024-03-07T08:37:00;34.70;;;18.37;;
6251;SDS011;3159;52.414;9.784;2024-03-07T08:39:30;31.53;;;17.43;;
6251;SDS011;3159;52.414;9.784;2024-03-07T08:41:57;29.87;;;17.73;;
6251;SDS011;3159;52.414;9.784;2024-03-07T08:44:24;31.83;;;17.00;;
6251;SDS011;3159;52.414;9.784;2024-03-07T08:46:51;35.63;;;17.47;;
6251;SDS011;3159;52.414;9.784;2024-03-07T08:49:18;36.10;;;17.80;;
6251;SDS011;3159;52.414;9.784;2024-03-07T08:51:45;33.77;;;17.23;;
6251;SDS011;3159;52.414;9.784;2024-03-07T08:54:12;32.13;;;17.30;;
6251;SDS011;3159;52.414;9.784;2024-03-07T08:56:40;29.10;;;16.67;;
6251;SDS011;3159;52.414;9.784;2024-03-07T08:59:07;26.73;;;16.47;;
6251;SDS011;3159;52.414;9.784;2024-03-07T09:01:40;27.70;;;16.47;;
6251;SDS011;3159;52.414;9.784;2024-03-07T09:04:08;35.30;;;17.23;;
6251;SDS011;3159;52.414;9.784;2024-03-07T09:06:36;34.30;;;17.03;;
6251;SDS011;3159;52.414;9.784;2024-03-07T09:09:03;28.13;;;16.47;;
6251;SDS011;3159;52.414;9.784;2024-03-07T09:11:33;31.03;;;17.90;;
6251;SDS011;3159;52.414;9.784;2024-03-07T09:14:02;27.23;;;16.10;;
6251;SDS011;3159;52.414;9.784;2024-03-07T09:16:34;27.03;;;15.30;;
6251;SDS011;3159;52.414;9.784;2024-03-07T09:19:01;26.10;;;16.60;;
6251;SDS011;3159;52.414;9.784;2024-03-07T09:21:28;30.40;;;15.97;;
6251;SDS011;3159;52.414;9.784;2024-03-07T09:23:55;29.73;;;15.67;;
6251;SDS011;3159;52.414;9.784;2024-03-07T09:26:21;30.33;;;16.53;;
6251;SDS011;3159;52.414;9.784;2024-03-07T09:28:49;28.07;;;15.97;;
6251;SDS011;3159;52.414;9.784;2024-03-07T09:31:17;31.37;;;16.70;;
6251;SDS011;3159;52.414;9.784;2024-03-07T09:33:44;29.33;;;16.53;;
6251;SDS011;3159;52.414;9.784;2024-03-07T09:36:10;25.20;;;15.53;;
6251;SDS011;3159;52.414;9.784;2024-03-07T09:38:37;29.07;;;15.60;;
6251;SDS011;3159;52.414;9.784;2024-03-07T09:41:04;29.33;;;16.90;;
6251;SDS011;3159;52.414;9.784;2024-03-07T09:43:31;34.80;;;17.97;;
6251;SDS011;3159;52.414;9.784;2024-03-07T09:46:00;31.40;;;16.73;;
6251;SDS011;3159;52.414;9.784;2024-03-07T09:48:30;28.60;;;15.97;;
6251;SDS011;3159;52.414;9.784;2024-03-07T09:50:58;24.87;;;14.50;;
6251;SDS011;3159;52.414;9.784;2024-03-07T09:53:28;31.73;;;16.93;;
6251;SDS011;3159;52.414;9.784;2024-03-07T09:55:55;28.90;;;17.03;;
6251;SDS011;3159;52.414;9.784;2024-03-07T09:58:23;29.10;;;16.03;;
6251;SDS011;3159;52.414;9.784;2024-03-07T10:00:54;30.83;;;15.90;;
6251;SDS011;3159;52.414;9.784;2024-03-07T10:03:22;32.80;;;16.43;;
6251;SDS011;3159;52.414;9.784;2024-03-07T10:05:54;29.53;;;17.70;;
6251;SDS011;3159;52.414;9.784;2024-03-07T10:08:21;32.73;;;16.60;;
6251;SDS011;3159;52.414;9.784;2024-03-07T10:10:49;35.27;;;17.63;;
6251;SDS011;3159;52.414;9.784;2024-03-07T10:13:17;36.03;;;17.03;;
6251;SDS011;3159;52.414;9.784;2024-03-07T10:15:44;33.87;;;17.77;;
6251;SDS011;3159;52.414;9.784;2024-03-07T10:18:12;39.77;;;17.87;;
6251;SDS011;3159;52.414;9.784;2024-03-07T10:20:41;35.97;;;19.63;;
6251;SDS011;3159;52.414;9.784;2024-03-07T10:23:11;34.13;;;17.80;;
6251;SDS011;3159;52.414;9.784;2024-03-07T10:25:37;35.70;;;18.20;;
6251;SDS011;3159;52.414;9.784;2024-03-07T10:28:06;39.73;;;18.70;;
6251;SDS011;3159;52.414;9.784;2024-03-07T10:30:39;38.97;;;17.20;;
6251;SDS011;3159;52.414;9.784;2024-03-07T10:33:06;37.57;;;18.63;;
6251;SDS011;3159;52.414;9.784;2024-03-07T10:35:33;37.57;;;17.73;;
6251;SDS011;3159;52.414;9.784;2024-03-07T10:38:00;35.57;;;17.50;;
6251;SDS011;3159;52.414;9.784;2024-03-07T10:40:32;41.87;;;18.87;;
6251;SDS011;3159;52.414;9.784;2024-03-07T10:43:00;42.90;;;17.10;;
6251;SDS011;3159;52.414;9.784;2024-03-07T10:45:35;41.83;;;18.00;;
6251;SDS011;3159;52.414;9.784;2024-03-07T10:48:10;34.37;;;17.47;;
6251;SDS011;3159;52.414;9.784;2024-03-07T10:50:48;37.60;;;17.77;;
6251;SDS011;3159;52.414;9.784;2024-03-07T10:53:24;35.00;;;17.63;;
6251;SDS011;3159;52.414;9.784;2024-03-07T10:56:03;41.73;;;18.77;;
6251;SDS011;3159;52.414;9.784;2024-03-07T10:58:54;36.53;;;17.93;;
6251;SDS011;3159;52.414;9.784;2024-03-07T11:01:25;39.30;;;18.37;;
6251;SDS011;3159;52.414;9.784;2024-03-07T11:03:56;37.57;;;18.50;;
6251;SDS011;3159;52.414;9.784;2024-03-07T11:06:24;42.90;;;18.90;;
6251;SDS011;3159;52.414;9.784;2024-03-07T11:08:52;40.63;;;19.10;;
6251;SDS011;3159;52.414;9.784;2024-03-07T11:11:21;34.23;;;18.57;;
6251;SDS011;3159;52.414;9.784;2024-03-07T11:13:49;37.10;;;18.67;;
6251;SDS011;3159;52.414;9.784;2024-03-07T11:16:18;38.73;;;19.67;;
6251;SDS011;3159;52.414;9.784;2024-03-07T11:22:01;37.37;;;18.77;;
6251;SDS011;3159;52.414;9.784;2024-03-07T11:24:39;35.47;;;18.33;;
6251;SDS011;3159;52.414;9.784;2024-03-07T11:27:09;37.73;;;19.33;;
6251;SDS011;3159;52.414;9.784;2024-03-07T11:29:39;43.97;;;20.77;;
6251;SDS011;3159;52.414;9.784;2024-03-07T11:32:09;39.93;;;19.10;;
6251;SDS011;3159;52.414;9.784;2024-03-07T11:34:38;39.13;;;18.03;;
6251;SDS011;3159;52.414;9.784;2024-03-07T11:37:06;38.37;;;18.70;;
6251;SDS011;3159;52.414;9.784;2024-03-07T11:39:42;41.53;;;19.70;;
6251;SDS011;3159;52.414;9.784;2024-03-07T11:42:11;41.23;;;19.70;;
6251;SDS011;3159;52.414;9.784;2024-03-07T11:44:47;38.03;;;19.97;;
6251;SDS011;3159;52.414;9.784;2024-03-07T11:47:24;38.80;;;19.20;;
6251;SDS011;3159;52.414;9.784;2024-03-07T11:49:54;37.33;;;18.93;;
6251;SDS011;3159;52.414;9.784;2024-03-07T11:52:23;38.97;;;20.20;;
6251;SDS011;3159;52.414;9.784;2024-03-07T11:54:52;30.47;;;18.30;;
6251;SDS011;3159;52.414;9.784;2024-03-07T11:57:28;34.97;;;18.70;;
6251;SDS011;3159;52.414;9.784;2024-03-07T11:59:59;32.33;;;18.50;;
6251;SDS011;3159;52.414;9.784;2024-03-07T12:02:36;37.03;;;18.47;;
6251;SDS011;3159;52.414;9.784;2024-03-07T12:05:04;37.57;;;19.00;;
6251;SDS011;3159;52.414;9.784;2024-03-07T12:07:31;30.80;;;17.10;;
6251;SDS011;3159;52.414;9.784;2024-03-07T12:09:59;33.83;;;16.57;;
6251;SDS011;3159;52.414;9.784;2024-03-07T12:12:28;32.63;;;17.07;;
6251;SDS011;3159;52.414;9.784;2024-03-07T12:14:56;32.17;;;17.60;;
6251;SDS011;3159;52.414;9.784;2024-03-07T12:17:23;33.27;;;17.97;;
6251;SDS011;3159;52.414;9.784;2024-03-07T12:19:52;32.23;;;17.67;;
6251;SDS011;3159;52.414;9.784;2024-03-07T12:22:19;32.33;;;16.73;;
6251;SDS011;3159;52.414;9.784;2024-03-07T12:24:48;33.57;;;16.53;;
6251;SDS011;3159;52.414;9.784;2024-03-07T12:27:27;35.33;;;18.20;;
6251;SDS011;3159;52.414;9.784;2024-03-07T12:29:55;30.97;;;15.70;;
6251;SDS011;3159;52.414;9.784;2024-03-07T12:32:22;30.43;;;17.07;;
6251;SDS011;3159;52.414;9.784;2024-03-07T12:34:52;25.37;;;15.53;;
6251;SDS011;3159;52.414;9.784;2024-03-07T12:37:19;29.07;;;15.93;;
6251;SDS011;3159;52.414;9.784;2024-03-07T12:39:52;33.23;;;16.60;;
6251;SDS011;3159;52.414;9.784;2024-03-07T12:42:26;30.97;;;16.83;;
6251;SDS011;3159;52.414;9.784;2024-03-07T12:44:56;34.03;;;18.13;;
6251;SDS011;3159;52.414;9.784;2024-03-07T12:47:24;30.97;;;16.87;;
6251;SDS011;3159;52.414;9.784;2024-03-07T12:49:53;34.57;;;17.97;;
6251;SDS011;3159;52.414;9.784;2024-03-07T12:52:23;34.53;;;18.47;;
6251;SDS011;3159;52.414;9.784;2024-03-07T12:54:50;34.27;;;17.67;;
6251;SDS011;3159;52.414;9.784;2024-03-07T12:57:20;32.17;;;16.37;;
6251;SDS011;3159;52.414;9.784;2024-03-07T12:59:48;27.47;;;15.10;;
6251;SDS011;3159;52.414;9.784;2024-03-07T13:02:15;31.23;;;17.30;;
6251;SDS011;3159;52.414;9.784;2024-03-07T13:04:42;28.07;;;16.97;;
6251;SDS011;3159;52.414;9.784;2024-03-07T13:07:11;29.40;;;16.30;;
6251;SDS011;3159;52.414;9.784;2024-03-07T13:09:40;29.10;;;17.07;;
6251;SDS011;3159;52.414;9.784;2024-03-07T13:12:09;29.27;;;16.17;;
6251;SDS011;3159;52.414;9.784;2024-03-07T13:14:39;33.43;;;16.43;;
6251;SDS011;3159;52.414;9.784;2024-03-07T13:17:08;27.20;;;16.90;;
6251;SDS011;3159;52.414;9.784;2024-03-07T13:19:35;28.27;;;16.87;;
6251;SDS011;3159;52.414;9.784;2024-03-07T13:22:03;26.93;;;15.33;;
6251;SDS011;3159;52.414;9.784;2024-03-07T13:24:33;27.37;;;17.13;;
6251;SDS011;3159;52.414;9.784;2024-03-07T13:27:00;25.47;;;14.83;;
6251;SDS011;3159;52.414;9.784;2024-03-07T13:29:27;27.10;;;15.23;;
6251;SDS011;3159;52.414;9.784;2024-03-07T13:31:55;27.00;;;15.37;;
6251;SDS011;3159;52.414;9.784;2024-03-07T13:34:21;28.13;;;15.97;;
6251;SDS011;3159;52.414;9.784;2024-03-07T13:36:51;28.50;;;16.00;;
6251;SDS011;3159;52.414;9.784;2024-03-07T13:39:18;28.07;;;16.00;;
6251;SDS011;3159;52.414;9.784;2024-03-07T13:41:47;26.40;;;16.33;;
6251;SDS011;3159;52.414;9.784;2024-03-07T13:44:14;29.80;;;15.93;;
6251;SDS011;3159;52.414;9.784;2024-03-07T13:46:42;26.80;;;15.63;;
6251;SDS011;3159;52.414;9.784;2024-03-07T13:49:09;22.73;;;14.23;;
6251;SDS011;3159;52.414;9.784;2024-03-07T13:51:38;28.87;;;14.90;;
6251;SDS011;3159;52.414;9.784;2024-03-07T13:54:15;27.03;;;15.53;;
6251;SDS011;3159;52.414;9.784;2024-03-07T13:57:04;22.83;;;14.33;;
6251;SDS011;3159;52.414;9.784;2024-03-07T13:59:56;21.63;;;13.57;;
6251;SDS011;3159;52.414;9.784;2024-03-07T14:05:56;22.20;;;14.23;;
6251;SDS011;3159;52.414;9.784;2024-03-07T14:08:32;24.33;;;14.83;;
6251;SDS011;3159;52.414;9.784;2024-03-07T14:14:44;26.27;;;14.77;;
6251;SDS011;3159;52.414;9.784;2024-03-07T14:17:52;23.67;;;13.97;;
6251;SDS011;3159;52.414;9.784;2024-03-07T14:20:46;25.03;;;14.90;;
6251;SDS011;3159;52.414;9.784;2024-03-07T14:23:39;22.37;;;14.30;;
6251;SDS011;3159;52.414;9.784;2024-03-07T14:26:34;24.53;;;14.07;;
6251;SDS011;3159;52.414;9.784;2024-03-07T14:29:22;23.10;;;15.03;;
6251;SDS011;3159;52.414;9.784;2024-03-07T14:32:00;22.77;;;13.67;;
6251;SDS011;3159;52.414;9.784;2024-03-07T14:34:32;22.73;;;14.23;;
6251;SDS011;3159;52.414;9.784;2024-03-07T14:37:04;25.13;;;14.23;;
6251;SDS011;3159;52.414;9.784;2024-03-07T14:39:38;22.67;;;14.57;;
6251;SDS011;3159;52.414;9.784;2024-03-07T14:42:07;26.60;;;14.87;;
6251;SDS011;3159;52.414;9.784;2024-03-07T14:44:39;22.80;;;14.77;;
6251;SDS011;3159;52.414;9.784;2024-03-07T14:47:12;22.73;;;13.90;;
6251;SDS011;3159;52.414;9.784;2024-03-07T14:49:40;23.57;;;14.27;;
6251;SDS011;3159;52.414;9.784;2024-03-07T14:52:08;21.60;;;14.07;;
6251;SDS011;3159;52.414;9.784;2024-03-07T14:54:36;23.13;;;13.30;;
6251;SDS011;3159;52.414;9.784;2024-03-07T14:57:04;21.07;;;13.80;;
6251;SDS011;3159;52.414;9.784;2024-03-07T14:59:32;21.20;;;13.83;;
6251;SDS011;3159;52.414;9.784;2024-03-07T15:01:59;21.07;;;14.27;;
6251;SDS011;3159;52.414;9.784;2024-03-07T15:04:30;21.60;;;13.90;;
6251;SDS011;3159;52.414;9.784;2024-03-07T15:06:58;21.57;;;13.80;;
6251;SDS011;3159;52.414;9.784;2024-03-07T15:09:28;19.97;;;13.43;;
6251;SDS011;3159;52.414;9.784;2024-03-07T15:11:59;20.50;;;13.77;;
6251;SDS011;3159;52.414;9.784;2024-03-07T15:14:25;22.17;;;13.63;;